Latest Weather Observations for Woolshed

IDQ60801

Issued at 3:05 pm EST Tuesday 2 September 2014 (issued every 30 minutes, with the page automatically refreshed every 10 minutes)

About weather observations | Map of weather stations | Latest weather observations for QLD | Other Formats
Station Details ID: 033307 Name: WOOLSHED Lat: -19.42 Lon: 146.54 Height: 556.04 m
Data from the previous 72 hours. | See also: Recent months at Woolshed
Date/Time
EST
Temp
°C
App
Temp
°C
Dew
Point
Rel
Hum
%
Delta-T
°C
Wind Press
QNH
hPa
Press
MSL
hPa
Rain
since 9 am
mm
Dir
 
Spd
km/h
Gust
km/h
Spd
kts
Gust
kts
02/03:00pm 25.5 25.1 13.0 46 7.4 N 7 15 4 8 1015.8 1013.3 0.0
02/02:30pm 25.0 24.3 11.9 44 7.6 NNE 7 17 4 9 1016.3 1013.7 0.0
02/02:00pm 27.6 24.8 3.3 21 12.4 SSW 7 17 4 9 1016.6 1014.1 0.0
02/01:30pm 27.3 23.9 1.7 19 12.7 SW 9 24 5 13 1017.0 1014.5 0.0
02/01:00pm 27.2 24.7 3.7 22 12.1 S 6 13 3 7 1017.3 1014.8 0.0
02/12:30pm 24.8 24.4 13.0 47 7.0 NE 7 13 4 7 1017.7 1015.2 0.0
02/12:00pm 23.7 23.1 12.4 49 6.6 NNE 7 13 4 7 1018.6 1016.1 0.0
02/11:30am 23.5 23.0 12.5 50 6.4 NNE 7 17 4 9 1019.1 1016.6 0.0
02/11:00am 22.6 21.8 11.7 50 6.3 N 7 15 4 8 1019.5 1017.1 0.0
02/10:30am 22.1 22.3 11.8 52 5.9 W 2 7 1 4 1019.8 1017.4 0.0
02/10:00am 21.0 21.1 12.7 59 4.8 NNE 4 7 2 4 1020.3 1017.8 0.0
02/09:30am 20.3 20.3 12.5 61 4.5 NE 4 7 2 4 1020.5 1018.0 0.0
02/09:00am 18.9 18.6 12.6 67 3.6 NE 6 9 3 5 1020.5 1018.0 0.0
02/08:30am 18.4 19.2 13.7 74 2.7 N 2 6 1 3 1020.2 1017.7 0.0
02/08:00am 16.5 17.8 14.2 86 1.3 CALM 0 0 0 0 1020.1 1017.6 0.0
02/07:30am 13.7 14.6 12.9 95 0.5 CALM 0 0 0 0 1020.1 1017.6 0.0
02/07:00am 11.2 11.5 10.9 98 0.2 CALM 0 0 0 0 1019.8 1017.4 0.0
02/06:30am 11.3 11.5 10.7 96 0.3 CALM 0 0 0 0 1019.6 1017.2 0.0
02/06:00am 12.8 12.9 11.5 92 0.7 N 2 4 1 2 1019.4 1016.9 0.0
02/05:30am 13.9 14.0 12.8 93 0.6 N 4 7 2 4 1018.9 1016.4 0.0
02/05:00am 14.2 14.4 13.1 93 0.6 NNE 4 7 2 4 1018.7 1016.2 0.0
02/04:30am 14.3 14.2 13.2 93 0.6 NNE 6 11 3 6 1018.6 1016.1 0.0
02/04:00am 14.3 14.2 13.3 94 0.6 NE 6 11 3 6 1018.6 1016.1 0.0
02/03:30am 14.4 14.3 13.4 94 0.6 NNE 6 13 3 7 1018.7 1016.2 0.0
02/03:00am 14.6 14.4 13.6 94 0.6 NE 7 11 4 6 1018.8 1016.3 0.0
02/02:30am 14.5 14.5 13.7 95 0.5 NNE 6 11 3 6 1018.9 1016.4 0.0
02/02:00am 14.4 14.4 13.6 95 0.5 NE 6 13 3 7 1019.2 1016.7 0.0
02/01:30am 14.3 14.3 13.5 95 0.5 NE 6 11 3 6 1019.5 1017.1 0.0
02/01:00am 14.5 14.6 13.9 96 0.3 NE 6 11 3 6 1019.5 1017.1 0.0
02/12:30am 14.6 14.5 14.0 96 0.3 NE 7 13 4 7 1019.5 1017.1 0.0
02/12:00am 14.6 14.7 14.0 96 0.3 NE 6 13 3 7 1019.7 1017.3 0.0
 
Date/Time
EST
Temp
°C
App
Temp
°C
Dew
Point
Rel
Hum
%
Delta-T
°C
Wind Press
QNH
hPa
Press
MSL
hPa
Rain
since 9 am
mm
Dir
 
Spd
km/h
Gust
km/h
Spd
kts
Gust
kts
01/11:30pm 14.9 15.0 14.4 97 0.3 NE 7 13 4 7 1019.8 1017.4 0.0
01/11:00pm 14.9 15.0 14.4 97 0.3 NNE 7 17 4 9 1019.7 1017.3 0.0
01/10:30pm 15.0 15.1 14.4 96 0.3 NNE 7 15 4 8 1019.5 1017.1 0.0
01/10:00pm 15.2 15.0 14.6 96 0.4 NNE 9 17 5 9 1019.5 1017.1 0.0
01/09:30pm 15.0 14.9 14.0 94 0.6 NNE 7 19 4 10 1019.5 1017.1 0.0
01/09:00pm 15.3 15.0 14.3 94 0.6 NNE 9 17 5 9 1019.6 1017.2 0.0
01/08:30pm 15.0 15.0 13.7 92 0.7 NNE 6 11 3 6 1019.5 1017.1 0.0
01/08:00pm 15.2 15.0 13.6 90 0.9 NNE 7 15 4 8 1019.4 1016.9 0.0
01/07:30pm 15.2 15.0 12.9 86 1.3 NE 6 13 3 7 1019.1 1016.6 0.0
01/07:00pm 15.7 15.2 12.5 81 1.8 NNE 7 17 4 9 1018.7 1016.2 0.0
01/06:30pm 16.0 15.4 11.6 75 2.4 NNE 6 13 3 7 1018.5 1016.0 0.0
01/06:00pm 16.8 15.8 11.1 69 3.1 NNE 7 13 4 7 1018.3 1015.8 0.0
01/05:30pm 17.9 17.0 11.2 65 3.7 NNE 7 15 4 8 1018.0 1015.6 0.0
01/05:00pm 18.6 17.1 10.7 60 4.4 NNE 9 17 5 9 1017.7 1015.2 0.0
01/04:30pm 20.1 18.5 11.6 58 4.8 NNE 11 24 6 13 1017.5 1015.0 0.0
01/04:00pm 20.9 19.7 11.5 55 5.3 NNE 9 22 5 12 1017.4 1014.9 0.0
01/03:30pm 21.8 20.2 10.3 48 6.4 NNE 9 19 5 10 1017.5 1015.0 0.0
01/03:00pm 22.5 21.3 9.6 44 7.1 NNE 6 13 3 7 1017.6 1015.1 0.0
01/02:30pm 21.8 19.9 7.6 40 7.6 NNE 7 17 4 9 1018.0 1015.6 0.0
01/02:00pm 22.5 20.8 10.0 45 7.0 N 9 19 5 10 1018.2 1015.7 0.0
01/01:30pm 22.3 21.0 10.1 46 6.8 ENE 7 19 4 10 1018.6 1016.1 0.0
01/01:00pm 22.4 21.1 9.2 43 7.3 N 6 15 3 8 1019.0 1016.5 0.0
01/12:30pm 22.4 21.0 8.9 42 7.4 NE 6 15 3 8 1019.6 1017.2 0.0
01/12:00pm 22.1 20.4 9.9 46 6.8 NNE 9 19 5 10 1020.4 1017.9 0.0
01/11:30am 21.0 19.2 10.8 52 5.7 NE 11 20 6 11 1020.6 1018.1 0.0
01/11:00am 20.6 18.9 9.8 50 5.9 NNE 9 17 5 9 1020.8 1018.3 0.0
01/10:30am 20.4 19.7 11.9 58 4.9 NNE 7 15 4 8 1020.8 1018.3 0.0
01/10:00am 20.2 19.2 12.2 60 4.6 NE 9 15 5 8 1021.1 1018.6 0.0
01/09:30am 19.0 18.2 11.8 63 4.1 N 7 15 4 8 1021.3 1019.5 0.0
01/09:00am 18.3 17.9 13.0 71 3.1 NNE 7 15 4 8 1021.2 1019.4 0.0
01/08:30am 17.8 17.6 13.5 76 2.5 ENE 7 13 4 7 1020.7 1018.9 0.0
01/08:00am 16.9 16.7 13.6 81 1.9 NE 7 11 4 6 1020.3 1018.5 0.0
01/07:30am 16.0 15.9 13.8 87 1.3 ENE 7 13 4 7 1019.8 1018.0 0.0
01/07:00am 14.2 14.4 13.2 94 0.6 NE 4 7 2 4 1019.4 1017.6 0.0
01/06:30am 13.6 13.3 12.8 95 0.4 NE 6 11 3 6 1019.1 1017.3 0.0
01/06:00am 13.5 13.5 12.4 93 0.6 NE 4 11 2 6 1018.8 1017.0 0.0
01/05:30am 13.3 13.3 12.4 94 0.5 NE 4 9 2 5 1018.6 1016.7 0.0
01/05:00am 13.2 13.6 12.4 95 0.4 ENE 2 4 1 2 1018.5 1016.6 0.0
01/04:30am 13.3 13.7 12.5 95 0.4 ENE 2 7 1 4 1018.5 1016.6 0.0
01/04:00am 13.4 13.5 12.6 95 0.4 ENE 4 6 2 3 1018.5 1016.6 0.0
01/03:30am 13.5 13.9 12.6 94 0.5 ENE 2 7 1 4 1018.5 1016.6 0.0
01/03:00am 13.1 13.3 12.0 93 0.6 ENE 2 4 1 2 1018.4 1016.5 0.0
01/02:30am 13.4 14.1 12.1 92 0.7 CALM 0 2 0 1 1018.7 1016.9 0.0
01/02:00am 14.2 14.6 12.6 90 0.9 ENE 2 6 1 3 1018.8 1017.0 0.0
01/01:30am 14.8 14.7 13.3 91 0.9 ENE 6 9 3 5 1019.1 1017.3 0.0
01/01:00am 14.8 14.6 13.7 93 0.6 ENE 7 11 4 6 1019.4 1017.6 0.0
01/12:30am 14.8 14.7 13.8 94 0.6 ENE 7 13 4 7 1019.4 1017.6 0.0
01/12:00am 15.0 14.9 14.0 94 0.6 ENE 7 9 4 5 1019.5 1017.7 0.0
 
Date/Time
EST
Temp
°C
App
Temp
°C
Dew
Point
Rel
Hum
%
Delta-T
°C
Wind Press
QNH
hPa
Press
MSL
hPa
Rain
since 9 am
mm
Dir
 
Spd
km/h
Gust
km/h
Spd
kts
Gust
kts
31/11:30pm 14.9 14.8 13.8 93 0.6 NE 7 13 4 7 1019.5 1017.7 0.0
31/11:00pm 14.9 14.7 13.6 92 0.7 NE 7 15 4 8 1019.6 1017.8 0.0
31/10:30pm 14.7 14.5 12.9 89 1.0 NE 6 11 3 6 1019.6 1017.8 0.0
31/10:00pm 14.7 14.2 12.2 85 1.4 NE 6 11 3 6 1019.6 1017.8 0.0
31/09:30pm 15.1 14.5 11.7 80 1.9 NE 6 7 3 4 1019.4 1017.6 0.0
31/09:00pm 15.0 14.1 11.4 79 2.0 NE 7 15 4 8 1019.4 1017.6 0.0
31/08:30pm 15.2 14.1 10.8 75 2.4 NE 7 15 4 8 1019.2 1017.4 0.0
31/08:00pm 15.6 14.1 10.6 72 2.7 NE 9 17 5 9 1019.0 1017.2 0.0
31/07:30pm 15.6 14.3 9.9 69 3.1 NNE 7 17 4 9 1018.6 1016.7 0.0
31/07:00pm 15.9 14.3 8.9 63 3.7 NNE 7 15 4 8 1018.3 1016.4 0.0
31/06:30pm 15.7 13.9 7.2 57 4.3 NNE 6 13 3 7 1018.0 1016.2 0.0
31/06:00pm 16.6 14.0 5.9 49 5.3 NNE 9 17 5 9 1017.5 1015.7 0.0
31/05:30pm 18.1 15.6 4.7 41 6.6 NNE 7 15 4 8 1017.1 1015.3 0.0
31/05:00pm 19.2 16.3 4.9 39 7.1 NNE 9 17 5 9 1017.0 1015.1 0.0
31/04:30pm 20.3 17.4 4.4 35 7.9 NNE 9 19 5 10 1016.7 1014.8 0.0
31/04:00pm 20.8 17.9 6.4 39 7.5 NNE 11 19 6 10 1016.6 1014.7 0.0
31/03:30pm 21.2 19.0 9.4 47 6.5 NNE 11 20 6 11 1016.4 1014.5 0.0
31/03:00pm 22.7 21.7 10.2 45 7.0 NNE 6 15 3 8 1016.4 1014.5 0.0
31/02:30pm 22.5 20.6 6.7 36 8.3 E 6 15 3 8 1016.7 1014.8 0.0
31/02:00pm 22.5 20.7 7.1 37 8.2 N 6 13 3 7 1017.0 1015.1 0.0
31/01:30pm 22.2 20.3 6.8 37 8.1 ENE 6 9 3 5 1017.4 1015.6 0.0
31/01:00pm 21.2 19.0 6.3 38 7.7 E 7 17 4 9 1018.0 1016.2 0.0
31/12:30pm 20.7 18.7 7.3 42 7.1 E 7 17 4 9 1018.4 1016.5 0.0
31/12:00pm 21.1 19.7 7.3 41 7.3 ENE 4 13 2 7 1018.9 1017.1 0.0
31/11:30am 21.1 19.4 7.7 42 7.1 SE 6 13 3 7 1019.3 1017.5 0.0
31/11:00am 20.2 17.5 5.4 38 7.5 ESE 9 17 5 9 1019.7 1017.9 0.0
31/10:30am 20.2 19.3 10.6 54 5.4 ENE 6 13 3 7 1020.2 1018.3 0.0
31/10:00am 19.7 18.6 10.7 56 5.0 NNE 7 17 4 9 1020.4 1018.6 0.0
31/09:30am 19.3 19.6 12.3 64 4.0 NE 2 7 1 4 1020.5 1018.7 0.0
31/09:00am 18.1 17.8 12.8 71 3.0 ENE 6 11 3 6 1020.5 1018.7 0.0
31/08:30am 17.8 18.0 12.9 73 2.8 NNE 4 7 2 4 1020.4 1018.6 0.0
31/08:00am 16.8 17.7 15.0 89 1.1 NNE 4 7 2 4 1020.2 1018.3 0.0
31/07:30am 13.2 14.2 13.2 100 0.0 CALM 0 2 0 1 1019.9 1018.1 0.0
31/07:00am 10.4 10.5 10.1 98 0.2 CALM 0 0 0 0 1019.5 1017.7 0.0
31/06:30am 10.6 10.8 10.4 99 0.1 CALM 0 0 0 0 1019.3 1017.5 0.0
31/06:00am 11.0 11.2 10.7 98 0.2 CALM 0 0 0 0 1018.9 1017.1 0.0
31/05:30am 12.0 12.6 11.8 99 0.1 CALM 0 0 0 0 1018.5 1016.6 0.0
31/05:00am 12.1 12.1 11.3 95 0.4 ENE 2 6 1 3 1018.3 1016.4 0.0
31/04:30am 13.6 13.9 13.3 98 0.2 ENE 4 6 2 3 1018.3 1016.4 0.0
31/04:00am 13.7 13.9 13.2 97 0.3 ENE 4 4 2 2 1018.4 1016.5 0.0
31/03:30am 14.1 14.9 13.6 97 0.3 E 2 6 1 3 1018.5 1016.6 0.0
31/03:00am 14.1 14.7 13.1 94 0.6 ENE 2 4 1 2 1018.5 1016.6 0.0
31/02:30am 14.8 15.2 13.7 93 0.6 ENE 4 7 2 4 1018.8 1017.0 0.0
31/02:00am 15.4 15.9 14.1 92 0.8 ENE 4 11 2 6 1019.0 1017.2 0.0
31/01:30am 15.1 15.2 13.8 92 0.7 ENE 6 11 3 6 1019.2 1017.4 0.0
31/01:00am 15.4 15.6 14.1 92 0.8 ENE 6 13 3 7 1019.3 1017.5 0.0
31/12:30am 15.5 15.6 13.9 90 0.9 ENE 6 11 3 6 1019.5 1017.7 0.0
31/12:00am 15.1 15.7 13.0 87 1.2 NE 2 6 1 3 1019.7 1017.9 0.0
 
Date/Time
EST
Temp
°C
App
Temp
°C
Dew
Point
Rel
Hum
%
Delta-T
°C
Wind Press
QNH
hPa
Press
MSL
hPa
Rain
since 9 am
mm
Dir
 
Spd
km/h
Gust
km/h
Spd
kts
Gust
kts
30/11:30pm 15.4 15.3 13.2 87 1.3 NE 6 13 3 7 1019.8 1018.0 0.0
30/11:00pm 15.3 15.0 13.2 87 1.2 NE 7 13 4 7 1019.9 1018.1 0.0
30/10:30pm 14.9 14.1 12.8 87 1.2 NE 9 15 5 8 1020.1 1018.2 0.0
30/10:00pm 15.0 14.5 12.5 85 1.4 NE 7 13 4 7 1020.2 1018.3 0.0
30/09:30pm 15.2 14.2 12.3 83 1.6 NE 9 20 5 11 1020.2 1018.3 0.0
30/09:00pm 14.9 14.2 12.0 83 1.6 NE 7 15 4 8 1020.1 1018.2 0.0
30/08:30pm 15.3 14.6 11.9 80 1.9 NNE 7 15 4 8 1020.1 1018.2 0.0
30/08:00pm 15.6 14.5 11.8 78 2.1 NE 9 19 5 10 1019.8 1018.0 0.0
30/07:30pm 15.4 14.5 11.4 77 2.2 NE 7 13 4 7 1019.3 1017.5 0.0
30/07:00pm 15.6 14.6 11.0 74 2.5 NNE 7 17 4 9 1019.0 1017.2 0.0
30/06:30pm 16.1 14.4 10.0 67 3.3 NNE 9 19 5 10 1018.7 1016.9 0.0
30/06:00pm 16.7 15.4 9.9 64 3.7 NNE 7 13 4 7 1018.5 1016.6 0.0
30/05:30pm 18.0 16.7 10.1 60 4.3 NNE 7 19 4 10 1018.2 1016.3 0.0
30/05:00pm 18.9 17.2 9.7 55 5.0 NNE 9 19 5 10 1017.9 1016.1 0.0
30/04:30pm 20.0 17.8 9.3 50 5.8 NE 11 19 6 10 1017.9 1016.1 0.0
30/04:00pm 20.6 18.4 9.2 48 6.2 NNE 11 22 6 12 1017.8 1016.0 0.0
30/03:30pm 21.5 19.8 9.7 47 6.5 N 9 19 5 10 1017.8 1016.0 0.0

Other Formats:

Comma delimited format used in spreadsheet applications
http://www.bom.gov.au/fwo/IDQ60801/IDQ60801.95293.axf

JavaScript Object Notation format (JSON) in row-major order
http://www.bom.gov.au/fwo/IDQ60801/IDQ60801.95293.json